createdAt,value
2023-03-06T00:00:58.541Z,3.70
2023-03-06T00:03:27.963Z,3.70
2023-03-06T00:05:57.808Z,3.70
2023-03-06T00:08:28.120Z,3.70
2023-03-06T00:10:56.590Z,3.70
2023-03-06T00:13:26.753Z,3.60
2023-03-06T00:15:54.199Z,3.60
2023-03-06T00:18:21.222Z,3.60
2023-03-06T00:20:48.656Z,3.70
2023-03-06T00:23:15.656Z,3.60
2023-03-06T00:25:46.381Z,3.70
2023-03-06T00:28:15.718Z,3.70
2023-03-06T00:30:44.432Z,3.70
2023-03-06T00:33:11.920Z,3.70
2023-03-06T00:35:42.396Z,3.70
2023-03-06T00:38:12.627Z,3.70
2023-03-06T00:40:40.156Z,3.70
2023-03-06T00:43:07.433Z,3.70
2023-03-06T00:45:36.033Z,3.60
2023-03-06T00:48:03.213Z,3.70
2023-03-06T00:50:30.420Z,3.70
2023-03-06T00:52:57.675Z,3.70
2023-03-06T00:55:25.406Z,3.70
2023-03-06T00:57:52.465Z,3.70
2023-03-06T01:00:20.692Z,3.70
2023-03-06T01:02:49.721Z,3.70
2023-03-06T01:05:17.075Z,3.70
2023-03-06T01:07:44.053Z,3.70
2023-03-06T01:10:12.161Z,3.70
2023-03-06T01:12:39.572Z,3.70
2023-03-06T01:15:07.913Z,3.70
2023-03-06T01:17:35.016Z,3.70
2023-03-06T01:20:04.769Z,3.70
2023-03-06T01:22:32.020Z,3.70
2023-03-06T01:25:00.170Z,3.70
2023-03-06T01:27:27.180Z,3.70
2023-03-06T01:29:54.358Z,3.70
2023-03-06T01:32:21.916Z,3.70
2023-03-06T01:34:49.829Z,3.70
2023-03-06T01:37:17.268Z,3.70
2023-03-06T01:39:44.662Z,3.70
2023-03-06T01:42:11.616Z,3.70
2023-03-06T01:45:27.279Z,3.70
2023-03-06T01:47:54.297Z,3.70
2023-03-06T01:50:21.854Z,3.60
2023-03-06T01:52:55.351Z,3.70
2023-03-06T01:55:30.780Z,3.70
2023-03-06T01:58:04.823Z,3.70
2023-03-06T02:00:32.322Z,3.60
2023-03-06T02:03:09.343Z,3.70
2023-03-06T02:05:41.553Z,3.70
2023-03-06T02:08:16.517Z,3.70
2023-03-06T02:11:08.330Z,3.60
2023-03-06T02:13:37.154Z,3.70
2023-03-06T02:16:05.542Z,3.60
2023-03-06T02:18:34.364Z,3.60
2023-03-06T02:21:08.543Z,3.70
2023-03-06T02:23:54.400Z,3.70
2023-03-06T02:26:23.350Z,3.60
2023-03-06T02:28:50.374Z,3.70
2023-03-06T02:31:27.787Z,3.70
2023-03-06T02:34:07.899Z,3.70
2023-03-06T02:36:42.785Z,3.70
2023-03-06T02:39:11.242Z,3.70
2023-03-06T02:41:39.273Z,3.70
2023-03-06T02:44:07.795Z,3.70
2023-03-06T02:46:35.878Z,3.70
2023-03-06T02:49:03.138Z,3.70
2023-03-06T02:51:30.393Z,3.70
2023-03-06T02:53:57.324Z,3.70
2023-03-06T02:56:24.550Z,3.70
2023-03-06T02:58:52.098Z,3.70
2023-03-06T03:01:20.364Z,3.70
2023-03-06T03:03:47.437Z,3.70
2023-03-06T03:06:16.247Z,3.70
2023-03-06T03:08:44.368Z,3.70
2023-03-06T03:11:12.464Z,3.70
2023-03-06T03:13:43.728Z,3.70
2023-03-06T03:16:16.713Z,3.70
2023-03-06T03:18:47.643Z,3.70
2023-03-06T03:21:17.160Z,3.70
2023-03-06T03:23:45.031Z,3.80
2023-03-06T03:26:17.638Z,3.70
2023-03-06T03:28:49.932Z,3.80
2023-03-06T03:31:19.696Z,3.70
2023-03-06T03:33:47.349Z,3.70
2023-03-06T03:36:14.867Z,3.70
2023-03-06T03:38:45.730Z,3.70
2023-03-06T03:41:13.118Z,3.70
2023-03-06T03:43:40.182Z,3.70
2023-03-06T03:46:07.581Z,3.70
2023-03-06T03:48:35.015Z,3.70
2023-03-06T03:51:13.905Z,3.70
2023-03-06T04:06:36.999Z,3.70
2023-03-06T04:09:06.131Z,3.70
2023-03-06T04:11:35.586Z,3.70
2023-03-06T04:14:03.412Z,3.80
2023-03-06T04:16:31.135Z,3.70
2023-03-06T04:18:58.628Z,3.70
2023-03-06T04:21:26.559Z,3.70
2023-03-06T04:23:54.428Z,3.70
2023-03-06T04:26:21.504Z,3.70
2023-03-06T04:28:49.023Z,3.70
2023-03-06T04:31:16.606Z,3.70
2023-03-06T04:33:43.885Z,3.70
2023-03-06T04:36:28.330Z,3.70
2023-03-06T04:39:00.001Z,3.80
2023-03-06T04:41:27.576Z,3.80
2023-03-06T04:43:55.153Z,3.80
2023-03-06T04:46:25.412Z,3.80
2023-03-06T04:48:52.613Z,3.70
2023-03-06T04:51:19.617Z,3.80
2023-03-06T04:53:46.805Z,3.70
2023-03-06T04:56:13.700Z,3.70
2023-03-06T04:58:41.075Z,3.70
2023-03-06T05:01:08.063Z,3.70
2023-03-06T05:03:35.295Z,3.70
2023-03-06T05:06:02.972Z,3.80
2023-03-06T05:08:30.517Z,3.80
2023-03-06T05:11:02.766Z,3.70
2023-03-06T05:13:30.087Z,3.70
2023-03-06T05:16:06.359Z,3.80
2023-03-06T05:18:34.901Z,3.70
2023-03-06T05:21:02.656Z,3.70
2023-03-06T05:23:33.244Z,3.70
2023-03-06T05:26:00.531Z,3.80
2023-03-06T05:28:28.609Z,3.70
2023-03-06T05:30:55.925Z,3.70
2023-03-06T05:33:23.274Z,3.80
2023-03-06T05:35:50.606Z,3.80
2023-03-06T05:38:17.910Z,3.70
2023-03-06T05:40:45.490Z,3.70
2023-03-06T05:43:12.879Z,3.70
2023-03-06T05:45:40.820Z,3.70
2023-03-06T05:48:10.435Z,3.80
2023-03-06T05:50:37.696Z,3.80
2023-03-06T05:53:06.428Z,3.80
2023-03-06T05:55:33.556Z,3.80
2023-03-06T05:58:01.028Z,3.70
2023-03-06T06:00:28.387Z,3.70
2023-03-06T06:02:55.611Z,3.70
2023-03-06T06:05:22.642Z,3.70
2023-03-06T06:07:49.950Z,3.70
2023-03-06T06:10:17.705Z,3.70
2023-03-06T06:12:44.843Z,3.70
2023-03-06T06:15:11.910Z,3.80
2023-03-06T06:17:39.015Z,3.80
2023-03-06T06:20:07.009Z,3.80
2023-03-06T06:22:37.826Z,3.80
2023-03-06T06:25:06.559Z,3.70
2023-03-06T06:27:33.875Z,3.80
2023-03-06T06:30:00.912Z,3.70
2023-03-06T06:32:29.511Z,3.80
2023-03-06T06:34:57.241Z,3.80
2023-03-06T06:37:25.969Z,3.80
2023-03-06T06:39:53.060Z,3.80
2023-03-06T06:42:31.439Z,3.80
2023-03-06T06:45:05.168Z,3.80
2023-03-06T06:47:34.270Z,3.80
2023-03-06T06:50:01.389Z,3.80
2023-03-06T06:52:28.658Z,3.80
2023-03-06T06:54:55.696Z,3.80
2023-03-06T06:57:22.864Z,3.80
2023-03-06T06:59:52.446Z,3.80
2023-03-06T07:02:22.563Z,3.90
2023-03-06T07:05:02.953Z,3.80
2023-03-06T07:07:35.802Z,3.80
2023-03-06T07:10:08.512Z,3.90
2023-03-06T07:12:37.173Z,3.90
2023-03-06T07:15:07.072Z,3.90
2023-03-06T07:17:35.270Z,3.90
2023-03-06T07:20:06.977Z,3.90
2023-03-06T07:22:50.004Z,3.90
2023-03-06T07:25:18.707Z,3.90
2023-03-06T07:27:52.733Z,3.90
2023-03-06T07:30:22.549Z,3.90
2023-03-06T07:32:53.896Z,3.90
2023-03-06T07:35:21.580Z,4.00
2023-03-06T07:37:49.131Z,4.00
2023-03-06T07:40:16.635Z,4.00
2023-03-06T07:42:43.975Z,4.00
2023-03-06T07:45:13.903Z,4.00
2023-03-06T07:47:41.288Z,4.00
2023-03-06T07:50:09.508Z,4.00
2023-03-06T07:52:36.941Z,4.00
2023-03-06T07:55:04.776Z,4.10
2023-03-06T07:57:32.057Z,4.10
2023-03-06T07:59:59.286Z,4.10
2023-03-06T08:02:26.707Z,4.10
2023-03-06T08:04:55.708Z,4.10
2023-03-06T08:07:23.472Z,4.10
2023-03-06T08:09:51.498Z,4.10
2023-03-06T08:12:19.124Z,4.10
2023-03-06T08:14:46.376Z,4.10
2023-03-06T08:17:13.816Z,4.20
2023-03-06T08:19:40.969Z,4.20
2023-03-06T08:22:08.485Z,4.20
2023-03-06T08:24:35.494Z,4.30
2023-03-06T08:27:03.362Z,4.30
2023-03-06T08:29:32.083Z,4.30
2023-03-06T08:31:59.539Z,4.40
2023-03-06T08:34:26.951Z,4.40
2023-03-06T08:36:54.391Z,4.50
2023-03-06T08:39:23.802Z,4.50
2023-03-06T08:41:51.436Z,4.50
2023-03-06T08:44:18.736Z,4.60
2023-03-06T08:46:46.060Z,4.70
2023-03-06T08:49:13.952Z,4.70
2023-03-06T08:51:42.428Z,4.80
2023-03-06T08:54:13.066Z,4.90
2023-03-06T08:56:40.377Z,4.90
2023-03-06T08:59:09.289Z,4.90
2023-03-06T09:01:38.526Z,5.00
2023-03-06T09:04:09.785Z,5.10
2023-03-06T09:06:41.692Z,5.20
2023-03-06T09:09:09.462Z,5.30
2023-03-06T09:11:37.348Z,5.40
2023-03-06T09:14:05.463Z,5.50
2023-03-06T09:16:33.376Z,5.50
2023-03-06T09:19:00.543Z,5.60
2023-03-06T09:21:28.595Z,5.60
2023-03-06T09:23:56.044Z,5.70
2023-03-06T09:26:32.833Z,5.70
2023-03-06T09:29:07.795Z,5.80
2023-03-06T09:31:35.019Z,6.00
2023-03-06T09:34:02.102Z,6.00
2023-03-06T09:36:30.336Z,6.00
2023-03-06T09:38:57.512Z,6.00
2023-03-06T09:41:33.184Z,6.00
2023-03-06T09:44:18.521Z,6.00
2023-03-06T09:47:06.946Z,6.20
2023-03-06T09:50:01.605Z,6.20
2023-03-06T09:52:46.547Z,6.50
2023-03-06T09:55:27.040Z,6.60
2023-03-06T09:58:16.177Z,6.70
2023-03-06T10:01:17.985Z,6.70
2023-03-06T10:03:54.994Z,6.90
2023-03-06T10:06:56.406Z,7.20
2023-03-06T10:09:38.433Z,7.30
2023-03-06T10:12:38.775Z,7.50
2023-03-06T10:15:38.526Z,7.60
2023-03-06T10:18:05.756Z,7.60
2023-03-06T10:21:00.962Z,7.50
2023-03-06T10:24:37.749Z,7.80
2023-03-06T10:27:21.898Z,8.00
2023-03-06T10:30:12.212Z,8.20
2023-03-06T10:32:58.697Z,8.00
2023-03-06T10:35:45.695Z,8.20
2023-03-06T10:38:31.792Z,8.20
2023-03-06T10:41:24.909Z,8.50
2023-03-06T10:44:01.347Z,8.70
2023-03-06T10:46:35.756Z,9.00
2023-03-06T10:49:36.762Z,9.00
2023-03-06T10:52:22.786Z,9.10
2023-03-06T10:54:50.141Z,9.40
2023-03-06T10:57:32.931Z,9.50
2023-03-06T11:00:06.238Z,9.60
2023-03-06T11:02:38.391Z,9.60
2023-03-06T11:05:17.646Z,9.70
2023-03-06T11:08:00.148Z,9.90
2023-03-06T11:10:31.677Z,10.10
2023-03-06T11:13:10.405Z,10.20
2023-03-06T11:15:38.046Z,10.20
2023-03-06T11:18:07.792Z,10.30
2023-03-06T11:20:55.266Z,10.20
2023-03-06T11:23:46.499Z,10.30
2023-03-06T11:26:16.592Z,10.40
2023-03-06T11:28:49.256Z,10.50
2023-03-06T11:31:31.611Z,10.60
2023-03-06T11:34:18.271Z,10.70
2023-03-06T11:37:03.668Z,10.80
2023-03-06T11:39:36.579Z,10.90
2023-03-06T11:42:21.785Z,11.10
2023-03-06T11:45:22.116Z,11.10
2023-03-06T11:48:14.701Z,11.20
2023-03-06T11:50:46.040Z,11.30
2023-03-06T11:53:36.949Z,11.30
2023-03-06T11:56:19.223Z,11.20
2023-03-06T11:59:20.471Z,11.20
2023-03-06T12:02:15.092Z,11.30
2023-03-06T12:05:32.521Z,11.30
2023-03-06T12:09:02.264Z,11.30
2023-03-06T12:11:48.480Z,11.30
2023-03-06T12:14:57.046Z,11.30
2023-03-06T12:17:54.685Z,11.30
2023-03-06T12:21:02.518Z,11.20
2023-03-06T12:24:12.288Z,11.20
2023-03-06T12:27:05.065Z,11.10
2023-03-06T12:29:56.463Z,11.00
2023-03-06T12:33:08.917Z,11.00
2023-03-06T12:36:19.721Z,10.90
2023-03-06T12:39:03.129Z,10.80
2023-03-06T12:41:33.799Z,10.80
2023-03-06T12:44:15.732Z,10.80
2023-03-06T12:46:57.771Z,10.70
2023-03-06T12:49:33.341Z,10.70
2023-03-06T12:52:04.358Z,10.70
2023-03-06T12:54:40.642Z,10.60
2023-03-06T12:57:09.796Z,10.60
2023-03-06T12:59:43.878Z,10.60
2023-03-06T13:02:32.773Z,10.50
2023-03-06T13:05:31.389Z,10.50
2023-03-06T13:08:26.208Z,10.50
2023-03-06T13:11:27.812Z,10.50
2023-03-06T13:13:56.513Z,10.50
2023-03-06T13:16:32.865Z,10.50
2023-03-06T13:19:18.254Z,10.40
2023-03-06T13:22:00.696Z,10.50
2023-03-06T13:24:37.164Z,10.50
2023-03-06T13:27:12.278Z,10.50
2023-03-06T13:29:39.640Z,10.50
2023-03-06T13:32:19.614Z,10.50
2023-03-06T13:34:49.947Z,10.50
2023-03-06T13:37:16.843Z,10.50
2023-03-06T13:39:57.071Z,10.50
2023-03-06T13:42:59.578Z,10.40
2023-03-06T13:45:46.940Z,9.90
2023-03-06T13:48:47.816Z,9.50
2023-03-06T13:51:31.657Z,9.20
2023-03-06T13:54:48.313Z,9.00
2023-03-06T13:57:27.995Z,8.80
2023-03-06T14:00:09.548Z,8.70
2023-03-06T14:03:34.161Z,8.70
2023-03-06T14:06:02.352Z,8.60
2023-03-06T14:08:33.178Z,8.60
2023-03-06T14:11:19.366Z,8.50
2023-03-06T14:13:55.788Z,8.40
2023-03-06T14:16:37.587Z,8.30
2023-03-06T14:19:19.970Z,8.20
2023-03-06T14:21:55.560Z,8.00
2023-03-06T14:24:38.117Z,7.90
2023-03-06T14:27:05.550Z,7.90
2023-03-06T14:29:33.755Z,8.00
2023-03-06T14:32:02.250Z,8.10
2023-03-06T14:34:40.812Z,8.10
2023-03-06T14:37:22.540Z,8.00
2023-03-06T14:39:50.141Z,7.90
2023-03-06T14:42:28.494Z,7.90
2023-03-06T14:45:19.396Z,8.00
2023-03-06T14:47:53.300Z,8.00
2023-03-06T14:50:29.271Z,8.00
2023-03-06T14:53:22.048Z,8.00
2023-03-06T14:56:06.764Z,8.00
2023-03-06T14:58:51.424Z,8.00
2023-03-06T15:01:40.159Z,8.00
2023-03-06T15:04:36.541Z,8.00
2023-03-06T15:07:19.374Z,8.10
2023-03-06T15:09:53.256Z,8.10
2023-03-06T15:12:20.744Z,8.00
2023-03-06T15:15:00.282Z,8.00
2023-03-06T15:17:32.008Z,8.00
2023-03-06T15:20:01.253Z,7.90
2023-03-06T15:22:38.950Z,7.90
2023-03-06T15:25:26.742Z,7.90
2023-03-06T15:28:32.653Z,7.90
2023-03-06T15:31:22.031Z,7.90
2023-03-06T15:34:07.586Z,8.00
2023-03-06T15:36:38.382Z,8.00
2023-03-06T15:39:39.308Z,8.00
2023-03-06T15:42:25.634Z,8.00
2023-03-06T15:45:27.802Z,8.00
2023-03-06T15:47:55.936Z,8.00
2023-03-06T15:50:27.814Z,8.00
2023-03-06T15:52:54.926Z,7.90
2023-03-06T15:55:26.013Z,7.80
2023-03-06T15:58:06.168Z,7.80
2023-03-06T16:00:38.385Z,7.80
2023-03-06T16:03:05.917Z,7.80
2023-03-06T16:05:33.540Z,7.80
2023-03-06T16:08:00.616Z,7.70
2023-03-06T16:10:30.724Z,7.70
2023-03-06T16:13:04.279Z,7.70
2023-03-06T16:15:45.205Z,7.80
2023-03-06T16:18:13.400Z,7.70
2023-03-06T16:20:41.605Z,7.70
2023-03-06T16:23:10.659Z,7.70
2023-03-06T16:25:42.085Z,7.70
2023-03-06T16:28:15.515Z,7.70
2023-03-06T16:30:44.761Z,7.70
2023-03-06T16:33:13.309Z,7.70
2023-03-06T16:35:41.248Z,7.60
2023-03-06T16:38:10.291Z,7.60
2023-03-06T16:40:41.198Z,7.50
2023-03-06T16:43:10.601Z,7.20
2023-03-06T16:45:41.884Z,7.20
2023-03-06T16:48:16.912Z,7.10
2023-03-06T16:50:45.066Z,7.00
2023-03-06T16:53:12.024Z,7.00
2023-03-06T16:55:39.399Z,6.90
2023-03-06T16:58:08.523Z,6.80
2023-03-06T17:00:35.811Z,6.70
2023-03-06T17:03:03.366Z,6.50
2023-03-06T17:05:34.619Z,6.40
2023-03-06T17:08:03.562Z,6.40
2023-03-06T17:10:31.144Z,6.30
2023-03-06T17:12:58.224Z,6.30
2023-03-06T17:15:25.893Z,6.30
2023-03-06T17:17:53.324Z,6.40
2023-03-06T17:20:20.724Z,6.30
2023-03-06T17:22:47.989Z,6.30
2023-03-06T17:25:15.380Z,6.30
2023-03-06T17:27:42.410Z,6.30
2023-03-06T17:30:11.231Z,6.30
2023-03-06T17:32:40.908Z,6.30
2023-03-06T17:35:09.523Z,6.30
2023-03-06T17:37:36.615Z,6.30
2023-03-06T17:40:09.244Z,6.30
2023-03-06T17:42:36.452Z,6.20
2023-03-06T17:45:04.999Z,6.20
2023-03-06T17:47:32.012Z,6.20
2023-03-06T17:49:59.612Z,6.20
2023-03-06T17:52:27.073Z,6.30
2023-03-06T17:54:54.230Z,6.30
2023-03-06T17:57:21.410Z,6.30
2023-03-06T17:59:48.982Z,6.30
2023-03-06T18:02:15.972Z,6.30
2023-03-06T18:04:43.588Z,6.30
2023-03-06T18:07:10.776Z,6.20
2023-03-06T18:09:38.495Z,6.30
2023-03-06T18:12:06.048Z,6.20
2023-03-06T18:14:33.474Z,6.20
2023-03-06T18:17:00.635Z,6.20
2023-03-06T18:19:28.109Z,6.20
2023-03-06T18:21:55.159Z,6.20
2023-03-06T18:24:22.356Z,6.10
2023-03-06T18:26:49.406Z,6.10
2023-03-06T18:29:16.759Z,6.10
2023-03-06T18:31:44.611Z,6.10
2023-03-06T18:34:17.785Z,6.10
2023-03-06T18:36:47.233Z,6.00
2023-03-06T18:39:15.728Z,6.00
2023-03-06T18:41:42.912Z,6.00
2023-03-06T18:44:15.243Z,6.00
2023-03-06T18:46:42.700Z,5.90
2023-03-06T18:49:12.932Z,5.90
2023-03-06T18:51:40.727Z,5.90
2023-03-06T18:54:08.334Z,5.90
2023-03-06T18:56:35.800Z,5.90
2023-03-06T18:59:06.483Z,5.80
2023-03-06T19:01:34.579Z,5.80
2023-03-06T19:04:04.716Z,5.80
2023-03-06T19:06:32.292Z,5.80
2023-03-06T19:09:01.680Z,5.70
2023-03-06T19:11:29.967Z,5.70
2023-03-06T19:13:57.620Z,5.70
2023-03-06T19:16:28.538Z,5.60
2023-03-06T19:18:57.191Z,5.60
2023-03-06T19:21:27.064Z,5.60
2023-03-06T19:23:55.954Z,5.60
2023-03-06T19:26:23.627Z,5.60
2023-03-06T19:28:52.434Z,5.60
2023-03-06T19:31:26.073Z,5.60
2023-03-06T19:33:56.500Z,5.60
2023-03-06T19:36:28.567Z,5.50
2023-03-06T19:38:59.065Z,5.50
2023-03-06T19:41:26.927Z,5.50
2023-03-06T19:43:58.789Z,5.50
2023-03-06T19:46:26.725Z,5.40
2023-03-06T19:49:12.062Z,5.40
2023-03-06T19:51:39.015Z,5.40
2023-03-06T19:54:06.212Z,5.30
2023-03-06T19:56:33.856Z,5.30
2023-03-06T19:59:01.032Z,5.30
2023-03-06T20:01:28.727Z,5.30
2023-03-06T20:04:07.407Z,5.30
2023-03-06T20:06:36.599Z,5.20
2023-03-06T20:09:08.771Z,5.20
2023-03-06T20:11:35.947Z,5.20
2023-03-06T20:14:07.571Z,5.20
2023-03-06T20:16:35.896Z,5.20
2023-03-06T20:19:04.092Z,5.20
2023-03-06T20:21:37.402Z,5.10
2023-03-06T20:24:07.237Z,5.10
2023-03-06T20:26:34.803Z,5.10
2023-03-06T20:29:02.312Z,5.10
2023-03-06T20:31:30.601Z,5.00
2023-03-06T20:33:59.583Z,5.00
2023-03-06T20:36:31.170Z,5.00
2023-03-06T20:39:08.764Z,5.00
2023-03-06T20:41:36.048Z,5.00
2023-03-06T20:44:07.392Z,5.00
2023-03-06T20:46:34.675Z,5.00
2023-03-06T20:49:02.356Z,4.90
2023-03-06T20:51:32.348Z,4.90
2023-03-06T20:54:02.376Z,5.00
2023-03-06T20:56:33.699Z,5.00
2023-03-06T20:59:02.409Z,4.90
2023-03-06T21:01:41.058Z,4.90
2023-03-06T21:04:13.751Z,4.90
2023-03-06T21:06:46.155Z,4.90
2023-03-06T21:09:16.825Z,4.90
2023-03-06T21:11:44.386Z,4.90
2023-03-06T21:14:13.682Z,4.90
2023-03-06T21:16:41.454Z,4.80
2023-03-06T21:19:09.636Z,4.80
2023-03-06T21:21:36.632Z,4.80
2023-03-06T21:24:05.287Z,4.80
2023-03-06T21:26:33.891Z,4.70
2023-03-06T21:29:02.571Z,4.80
2023-03-06T21:31:30.850Z,4.80
2023-03-06T21:33:58.910Z,4.80
2023-03-06T21:36:26.493Z,4.80
2023-03-06T21:38:54.862Z,4.70
2023-03-06T21:41:26.650Z,4.70
2023-03-06T21:43:59.662Z,4.80
2023-03-06T21:46:28.101Z,4.80
2023-03-06T21:48:56.186Z,4.80
2023-03-06T21:51:24.987Z,4.70
2023-03-06T21:53:54.177Z,4.70
2023-03-06T21:56:25.255Z,4.70
2023-03-06T21:59:05.074Z,4.70
2023-03-06T22:01:32.794Z,4.70
2023-03-06T22:04:00.513Z,4.70
2023-03-06T22:06:30.328Z,4.70
2023-03-06T22:09:00.316Z,4.70
2023-03-06T22:11:31.154Z,4.70
2023-03-06T22:13:58.656Z,4.70
2023-03-06T22:16:25.774Z,4.70
2023-03-06T22:18:53.110Z,4.60
2023-03-06T22:21:22.632Z,4.60
2023-03-06T22:23:59.007Z,4.60
2023-03-06T22:26:31.314Z,4.60
2023-03-06T22:28:58.621Z,4.60
2023-03-06T22:31:28.914Z,4.50
2023-03-06T22:34:00.077Z,4.60
2023-03-06T22:36:32.589Z,4.60
2023-03-06T22:39:01.331Z,4.60
2023-03-06T22:41:28.905Z,4.50
2023-03-06T22:44:01.479Z,4.60
2023-03-06T22:46:29.842Z,4.50
2023-03-06T22:48:59.588Z,4.50
2023-03-06T22:51:28.790Z,4.50
2023-03-06T22:53:56.405Z,4.50
2023-03-06T22:56:24.312Z,4.50
2023-03-06T22:58:51.955Z,4.50
2023-03-06T23:01:23.178Z,4.50
2023-03-06T23:03:54.785Z,4.40
2023-03-06T23:06:37.906Z,4.40
2023-03-06T23:09:16.101Z,4.40
2023-03-06T23:12:01.656Z,4.40
2023-03-06T23:14:50.961Z,4.40
2023-03-06T23:17:36.933Z,4.40
2023-03-06T23:20:23.241Z,4.40
2023-03-06T23:23:11.033Z,4.40
2023-03-06T23:25:41.582Z,4.40
2023-03-06T23:28:08.519Z,4.40
2023-03-06T23:30:38.960Z,4.30
2023-03-06T23:33:06.499Z,4.40
2023-03-06T23:35:34.981Z,4.30
2023-03-06T23:38:03.320Z,4.30
2023-03-06T23:40:34.499Z,4.30
2023-03-06T23:43:01.527Z,4.30
2023-03-06T23:45:28.852Z,4.30
2023-03-06T23:47:56.379Z,4.30
2023-03-06T23:50:24.586Z,4.30
2023-03-06T23:52:55.574Z,4.20
2023-03-06T23:55:22.863Z,4.20
2023-03-06T23:57:49.795Z,4.30
